Time;durP1;ratioP1;P1;durP2;ratioP2;P2;SDS_P1;SDS_P2;PMS_P1;PMS_P2;Temp;Humidity;BMP_temperature;BMP_pressure;BME280_temperature;BME280_humidity;BME280_pressure;Samples;Min_cycle;Max_cycle;Signal;HPM_P1;HPM_P2
2022/08/31 00:06:02;;;;;;;;;;;;;;;24.66;60.81;99913.19;7313542;19;129413;-38
2022/08/31 00:08:28;;;;;;;;;;;;;;;24.66;60.77;99910.56;7311831;19;129550;-37
2022/08/31 00:10:54;;;;;;;;;;;;;;;24.66;60.43;99913.19;7313853;19;129584;-36
2022/08/31 00:13:20;;;;;;;;;;;;;;;24.65;60.78;99914.16;7311664;19;129513;-38
2022/08/31 00:15:45;;;;;;;;;;;;;;;24.66;60.89;99915.81;7311103;19;129251;-36
2022/08/31 00:18:10;;;;;;;;;;;;;;;24.66;60.91;99919.25;7313522;19;131623;-38
2022/08/31 00:20:39;;;;;;;;;;;;;;;24.59;61.07;99905.09;7309865;19;128993;-38
2022/08/31 00:23:06;;;;;;;;;;;;;;;24.67;60.55;99914.81;7311296;19;128951;-38
2022/08/31 00:25:32;;;;;;;;;;;;;;;24.66;61.03;99916.63;7314200;19;129375;-38
2022/08/31 00:27:58;;;;;;;;;;;;;;;24.67;60.47;99922.72;7326937;19;129192;-38
2022/08/31 00:30:23;;;;;;;;;;;;;;;24.67;60.65;99917.47;7327270;19;129210;-37
2022/08/31 00:32:49;;;;;;;;;;;;;;;24.67;61.04;99920.09;7325967;19;129460;-38
2022/08/31 00:35:14;;;;;;;;;;;;;;;24.66;60.72;99928.97;7324116;19;129092;-38
2022/08/31 00:37:39;;;;;;;;;;;;;;;24.66;60.72;99926.34;7326635;19;129718;-38
2022/08/31 00:40:05;;;;;;;;;;;;;;;24.67;61.34;99925.34;7328296;19;128912;-38
2022/08/31 00:42:30;;;;;;;;;;;;;;;24.68;61.11;99919.97;7325880;19;129079;-37
2022/08/31 00:44:55;;;;;;;;;;;;;;;24.68;61.21;99932.28;7326671;19;129403;-38
2022/08/31 00:47:21;;;;;;;;;;;;;;;24.67;61.17;99933.22;7323836;19;129638;-37
2022/08/31 00:49:50;;;;;;;;;;;;;;;24.68;60.88;99925.22;7326532;19;130512;-38
2022/08/31 00:52:18;;;;;;;;;;;;;;;24.68;60.86;99929.66;7324218;19;128968;-38
2022/08/31 00:54:47;;;;;;;;;;;;;;;24.56;61.16;99909.81;7324220;19;129770;-38
2022/08/31 00:57:12;;;;;;;;;;;;;;;24.66;60.53;99928.97;7323192;19;129551;-36
2022/08/31 00:59:39;;;;;;;;;;;;;;;24.66;61.09;99916.63;7326490;19;128785;-37
2022/08/31 01:02:05;;;;;;;;;;;;;;;24.67;60.92;99927.97;7326524;19;129033;-38
2022/08/31 01:04:30;;;;;;;;;;;;;;;24.67;61.06;99934.06;7326027;19;129189;-38
2022/08/31 01:06:56;;;;;;;;;;;;;;;24.66;60.46;99921.06;7323944;19;129153;-38
2022/08/31 01:09:23;;;;;;;;;;;;;;;24.68;60.98;99919.13;7325742;19;129017;-37
2022/08/31 01:11:48;;;;;;;;;;;;;;;24.67;60.56;99928.81;7324274;19;128986;-37
2022/08/31 01:14:14;;;;;;;;;;;;;;;24.68;60.88;99924.38;7323388;19;129112;-38
2022/08/31 01:16:41;;;;;;;;;;;;;;;24.68;60.82;99924.38;7323408;19;130370;-38
2022/08/31 01:19:13;;;;;;;;;;;;;;;24.68;60.86;99924.38;7326184;19;128988;-36
2022/08/31 01:21:38;;;;;;;;;;;;;;;24.68;60.53;99925.22;7325821;19;129343;-38
2022/08/31 01:24:05;;;;;;;;;;;;;;;24.68;60.86;99925.22;7324657;19;130093;-38
2022/08/31 01:26:31;;;;;;;;;;;;;;;24.68;60.86;99925.22;7323238;19;130312;-38
2022/08/31 01:29:00;;;;;;;;;;;;;;;24.57;61.14;99914.09;7323995;19;129088;-38
2022/08/31 01:31:33;;;;;;;;;;;;;;;24.67;60.39;99933.22;7325057;19;129726;-38
2022/08/31 01:33:58;;;;;;;;;;;;;;;24.68;60.57;99924.38;7323381;19;129374;-38
2022/08/31 01:36:24;;;;;;;;;;;;;;;24.69;60.85;99926.06;7323405;19;129781;-38
2022/08/31 01:38:49;;;;;;;;;;;;;;;24.68;61.21;99934.91;7314793;19;129204;-38
2022/08/31 01:41:14;;;;;;;;;;;;;;;24.69;60.88;99931.31;7317548;19;128944;-38
2022/08/31 01:43:40;;;;;;;;;;;;;;;24.67;60.75;99927.97;7316993;19;129162;-38
2022/08/31 01:46:09;;;;;;;;;;;;;;;24.68;60.99;99932.28;7315810;19;129699;-38
2022/08/31 01:48:35;;;;;;;;;;;;;;;24.67;60.94;99928.81;7318242;19;128774;-38
2022/08/31 01:51:01;;;;;;;;;;;;;;;24.69;60.49;99924.25;7318207;19;129025;-38
2022/08/31 01:53:26;;;;;;;;;;;;;;;24.67;60.43;99923.56;7317113;19;129425;-38
2022/08/31 01:55:51;;;;;;;;;;;;;;;24.66;60.79;99921.88;7316481;19;129722;-37
2022/08/31 01:58:17;;;;;;;;;;;;;;;24.68;60.49;99919.97;7318384;19;129207;-38
2022/08/31 02:00:42;;;;;;;;;;;;;;;24.68;60.54;99924.38;7318215;19;129097;-36
2022/08/31 02:03:08;;;;;;;;;;;;;;;24.68;60.40;99924.38;7316276;19;129610;-38
2022/08/31 02:05:34;;;;;;;;;;;;;;;24.67;60.88;99918.28;7315640;19;133254;-38
2022/08/31 02:07:59;;;;;;;;;;;;;;;24.68;61.17;99922.59;7316818;19;129840;-37
2022/08/31 02:10:25;;;;;;;;;;;;;;;24.68;60.71;99919.13;7317237;19;129083;-39
2022/08/31 02:12:50;;;;;;;;;;;;;;;24.68;60.49;99916.50;7315667;19;129161;-36
2022/08/31 02:15:15;;;;;;;;;;;;;;;24.68;60.83;99919.13;7313489;19;130944;-38
2022/08/31 02:17:40;;;;;;;;;;;;;;;24.68;60.39;99908.63;7317294;19;128837;-37
2022/08/31 02:20:07;;;;;;;;;;;;;;;24.68;60.76;99919.13;7316595;19;129861;-35
2022/08/31 02:22:32;;;;;;;;;;;;;;;24.66;61.09;99910.56;7315363;19;130650;-39
2022/08/31 02:24:57;;;;;;;;;;;;;;;24.67;60.57;99912.19;7315638;19;129776;-38
2022/08/31 02:27:23;;;;;;;;;;;;;;;24.68;61.11;99905.97;7314126;19;129231;-38
2022/08/31 02:29:48;;;;;;;;;;;;;;;24.68;60.33;99908.63;7315185;19;128975;-36
2022/08/31 02:32:13;;;;;;;;;;;;;;;24.70;60.46;99911.91;7314662;19;131166;-36
2022/08/31 02:34:39;;;;;;;;;;;;;;;24.60;60.40;99896.22;7314038;19;130083;-37
2022/08/31 02:37:05;;;;;;;;;;;;;;;24.68;61.06;99898.09;7313987;19;130709;-38
2022/08/31 02:39:30;;;;;;;;;;;;;;;24.68;60.86;99892.84;7316035;19;129379;-38
2022/08/31 02:41:56;;;;;;;;;;;;;;;24.68;60.75;99901.56;7314813;19;129659;-37
2022/08/31 02:44:21;;;;;;;;;;;;;;;24.67;60.43;99892.00;7316180;19;130319;-38
2022/08/31 02:46:46;;;;;;;;;;;;;;;24.68;60.81;99898.94;7314018;19;129084;-38
2022/08/31 02:49:12;;;;;;;;;;;;;;;24.55;60.90;99882.69;7315482;19;129773;-38
2022/08/31 02:51:38;;;;;;;;;;;;;;;24.66;60.59;99900.03;7314622;19;130139;-36
2022/08/31 02:54:03;;;;;;;;;;;;;;;24.67;60.38;99901.69;7314615;19;129363;-38
2022/08/31 02:56:29;;;;;;;;;;;;;;;24.67;60.88;99901.69;7314942;19;129169;-38
2022/08/31 02:58:54;;;;;;;;;;;;;;;24.67;60.91;99905.16;7314104;19;129435;-38
2022/08/31 03:01:20;;;;;;;;;;;;;;;24.67;60.72;99905.16;7314970;19;130148;-37
2022/08/31 03:03:46;;;;;;;;;;;;;;;24.66;61.04;99895.59;7314443;19;129243;-38
2022/08/31 03:06:11;;;;;;;;;;;;;;;24.67;60.62;99891.16;7313559;19;129072;-38
2022/08/31 03:08:38;;;;;;;;;;;;;;;24.68;60.41;99887.56;7314736;19;129145;-38
2022/08/31 03:11:03;;;;;;;;;;;;;;;24.69;60.69;99884.00;7314658;19;130854;-38
2022/08/31 03:13:28;;;;;;;;;;;;;;;24.68;60.69;99892.84;7314277;19;130680;-38
2022/08/31 03:15:54;;;;;;;;;;;;;;;24.68;60.37;99882.31;7313869;19;129300;-37
2022/08/31 03:18:19;;;;;;;;;;;;;;;24.68;61.18;99884.94;7314327;19;129102;-38
2022/08/31 03:20:44;;;;;;;;;;;;;;;24.68;60.76;99884.94;7313896;19;129190;-38
2022/08/31 03:23:11;;;;;;;;;;;;;;;24.67;60.18;99884.13;7314525;19;130949;-38
2022/08/31 03:25:36;;;;;;;;;;;;;;;24.67;60.64;99880.66;7313848;19;129111;-38
2022/08/31 03:28:01;;;;;;;;;;;;;;;24.67;60.11;99891.16;7314080;19;128971;-37
2022/08/31 03:30:26;;;;;;;;;;;;;;;24.68;60.65;99887.56;7314109;19;129378;-38
2022/08/31 03:32:52;;;;;;;;;;;;;;;24.66;60.71;99885.06;7315041;19;129666;-38
2022/08/31 03:35:18;;;;;;;;;;;;;;;24.68;60.54;99890.22;7312066;19;128953;-38
2022/08/31 03:37:43;;;;;;;;;;;;;;;24.66;60.72;99884.25;7314091;19;129880;-38
2022/08/31 03:40:09;;;;;;;;;;;;;;;24.66;60.21;99890.31;7314538;19;129090;-38
2022/08/31 03:42:34;;;;;;;;;;;;;;;24.59;60.66;99878.78;7313798;19;129172;-38
2022/08/31 03:44:59;;;;;;;;;;;;;;;24.66;60.49;99889.53;7314164;19;128719;-38
2022/08/31 03:47:25;;;;;;;;;;;;;;;24.67;60.90;99899.88;7310481;19;129081;-38
2022/08/31 03:49:50;;;;;;;;;;;;;;;24.67;60.74;99901.69;7314285;19;130277;-38
2022/08/31 03:52:15;;;;;;;;;;;;;;;24.67;60.82;99891.16;7312461;19;129606;-35
2022/08/31 03:54:42;;;;;;;;;;;;;;;24.67;60.97;99902.50;7310398;19;129779;-35
2022/08/31 03:57:07;;;;;;;;;;;;;;;24.67;60.48;99906.94;7309749;19;129747;-37
2022/08/31 03:59:33;;;;;;;;;;;;;;;24.66;60.58;99900.03;7313453;19;129388;-38
2022/08/31 04:01:58;;;;;;;;;;;;;;;24.69;60.74;99905.03;7309292;19;129987;-37
2022/08/31 04:04:23;;;;;;;;;;;;;;;24.67;60.15;99912.19;7313592;19;129611;-38
2022/08/31 04:06:49;;;;;;;;;;;;;;;24.57;60.82;99901.78;7309406;19;128899;-38
2022/08/31 04:09:14;;;;;;;;;;;;;;;24.68;60.65;99913.88;7312579;19;130263;-39
2022/08/31 04:11:40;;;;;;;;;;;;;;;24.68;60.61;99913.88;7312345;19;129785;-38
2022/08/31 04:14:06;;;;;;;;;;;;;;;24.68;60.54;99919.13;7311248;19;129609;-35
2022/08/31 04:16:31;;;;;;;;;;;;;;;24.68;60.64;99913.88;7311643;19;129486;-37
2022/08/31 04:18:56;;;;;;;;;;;;;;;24.68;60.41;99913.88;7312302;19;129222;-38
2022/08/31 04:21:24;;;;;;;;;;;;;;;24.70;60.57;99911.91;7311449;19;130443;-38
2022/08/31 04:23:49;;;;;;;;;;;;;;;24.67;61.00;99913.03;7312188;19;128844;-37
2022/08/31 04:26:16;;;;;;;;;;;;;;;24.56;60.83;99900.09;7312079;19;129382;-38
2022/08/31 04:28:42;;;;;;;;;;;;;;;24.53;60.12;99900.41;7311880;19;129669;-36
2022/08/31 04:31:07;;;;;;;;;;;;;;;24.67;60.57;99922.72;7312653;19;130182;-37
2022/08/31 04:33:34;;;;;;;;;;;;;;;24.67;60.29;99933.22;7309659;19;130235;-38
2022/08/31 04:36:03;;;;;;;;;;;;;;;24.66;60.56;99936.84;7311484;19;130132;-37
2022/08/31 04:38:30;;;;;;;;;;;;;;;24.66;60.49;99932.41;7312751;19;130603;-38
2022/08/31 04:40:55;;;;;;;;;;;;;;;24.66;60.76;99926.34;7312119;19;129412;-36
2022/08/31 04:43:20;;;;;;;;;;;;;;;24.66;60.21;99931.59;7313590;19;130610;-35
2022/08/31 04:45:46;;;;;;;;;;;;;;;24.65;60.01;99935.19;7308112;19;129719;-38
2022/08/31 04:48:11;;;;;;;;;;;;;;;24.66;60.04;99926.34;7309587;19;130129;-38
2022/08/31 04:50:36;;;;;;;;;;;;;;;24.66;60.39;99929.78;7311004;19;129126;-38
2022/08/31 04:53:01;;;;;;;;;;;;;;;24.66;60.11;99926.34;7309919;19;129094;-35
2022/08/31 04:55:27;;;;;;;;;;;;;;;24.66;60.67;99932.41;7310926;19;129156;-38
2022/08/31 04:57:52;;;;;;;;;;;;;;;24.65;60.40;99932.56;7303924;19;130172;-38
2022/08/31 05:00:17;;;;;;;;;;;;;;;24.66;60.24;99926.34;7310655;19;129612;-38
2022/08/31 05:02:42;;;;;;;;;;;;;;;24.65;59.67;99936.00;7311819;19;129640;-38
2022/08/31 05:05:08;;;;;;;;;;;;;;;24.66;59.76;99942.09;7312448;19;130291;-38
2022/08/31 05:07:33;;;;;;;;;;;;;;;24.65;59.68;99936.00;7307889;19;129445;-37
2022/08/31 05:09:58;;;;;;;;;;;;;;;24.62;60.44;99951.25;7311976;19;130438;-38
2022/08/31 05:12:23;;;;;;;;;;;;;;;24.63;59.88;99958.16;7313994;19;130124;-35
2022/08/31 05:14:50;;;;;;;;;;;;;;;24.61;60.00;99947.00;7316868;19;129727;-36
2022/08/31 05:17:15;;;;;;;;;;;;;;;24.65;60.08;99953.59;7315830;19;129419;-38
2022/08/31 05:19:41;;;;;;;;;;;;;;;24.68;60.37;99950.69;7316412;19;129348;-38
2022/08/31 05:22:06;;;;;;;;;;;;;;;24.67;60.26;99954.28;7317420;19;129342;-37
2022/08/31 05:24:34;;;;;;;;;;;;;;;24.69;59.49;99957.63;7317585;19;129250;-38
2022/08/31 05:26:59;;;;;;;;;;;;;;;24.67;60.05;99954.28;7316433;19;129998;-38
2022/08/31 05:29:25;;;;;;;;;;;;;;;24.65;59.96;99953.59;7318540;19;129207;-38
2022/08/31 05:31:51;;;;;;;;;;;;;;;24.55;59.44;99948.41;7319024;19;129310;-38
2022/08/31 05:34:16;;;;;;;;;;;;;;;24.56;59.84;99944.78;7316127;19;129618;-38
2022/08/31 05:36:43;;;;;;;;;;;;;;;24.63;58.99;99961.63;7317928;19;130812;-38
2022/08/31 05:39:10;;;;;;;;;;;;;;;24.64;59.08;99965.09;7316913;19;131369;-38
2022/08/31 05:41:36;;;;;;;;;;;;;;;24.63;59.31;99966.88;7307458;19;129851;-38
2022/08/31 05:44:02;;;;;;;;;;;;;;;24.65;59.21;99966.72;7300877;19;130107;-39
2022/08/31 05:46:28;;;;;;;;;;;;;;;24.54;59.42;99951.19;7313184;19;130313;-37
2022/08/31 05:48:54;;;;;;;;;;;;;;;24.66;59.31;99968.41;7315882;19;129256;-35
2022/08/31 05:51:19;;;;;;;;;;;;;;;24.65;58.57;99977.25;7301354;19;131171;-38
2022/08/31 05:53:45;;;;;;;;;;;;;;;24.64;58.96;99975.59;7315975;19;129165;-37
2022/08/31 05:56:11;;;;;;;;;;;;;;;24.62;58.74;99980.19;7311549;19;129503;-39
2022/08/31 05:58:37;;;;;;;;;;;;;;;24.61;59.18;99983.81;7317193;19;132540;-38
2022/08/31 06:01:04;;;;;;;;;;;;;;;24.52;58.83;99966.28;7311104;19;129367;-38
2022/08/31 06:03:29;;;;;;;;;;;;;;;24.61;58.51;99981.16;7317932;19;129024;-38
2022/08/31 06:05:55;;;;;;;;;;;;;;;24.59;59.04;99980.50;7314553;19;129264;-38
2022/08/31 06:08:20;;;;;;;;;;;;;;;24.58;59.29;99982.28;7313501;19;130149;-36
2022/08/31 06:10:45;;;;;;;;;;;;;;;24.59;58.93;99988.38;7315398;19;129002;-38
2022/08/31 06:13:15;;;;;;;;;;;;;;;24.58;59.29;99987.53;7315958;19;130328;-38
2022/08/31 06:15:41;;;;;;;;;;;;;;;24.56;59.08;99986.06;7310070;19;130177;-37
2022/08/31 06:18:06;;;;;;;;;;;;;;;24.56;58.77;99994.75;7314416;19;130732;-38
2022/08/31 06:20:36;;;;;;;;;;;;;;;24.57;58.50;99995.56;7316197;19;129589;-35
2022/08/31 06:23:05;;;;;;;;;;;;;;;24.56;58.78;100002.63;7314321;19;129109;-38
2022/08/31 06:25:31;;;;;;;;;;;;;;;24.57;59.34;99999.03;7315060;19;130527;-38
2022/08/31 06:27:58;;;;;;;;;;;;;;;24.55;58.91;100002.78;7315225;19;130203;-39
2022/08/31 06:30:25;;;;;;;;;;;;;;;24.55;59.17;99998.34;7312596;19;129461;-37
2022/08/31 06:32:51;;;;;;;;;;;;;;;24.54;58.65;100001.13;7316861;19;129527;-38
2022/08/31 06:35:16;;;;;;;;;;;;;;;24.55;58.62;99998.34;7313006;19;129321;-37
2022/08/31 06:37:41;;;;;;;;;;;;;;;24.54;58.69;100011.66;7315848;19;129691;-38
2022/08/31 06:40:07;;;;;;;;;;;;;;;24.54;58.58;100006.41;7316145;19;131121;-37
2022/08/31 06:42:32;;;;;;;;;;;;;;;24.41;58.58;99997.06;7316913;19;129403;-38
2022/08/31 06:44:57;;;;;;;;;;;;;;;24.52;58.71;100010.97;7312213;19;129844;-38
2022/08/31 06:47:24;;;;;;;;;;;;;;;24.44;59.01;100006.47;7310752;19;130231;-36
2022/08/31 06:49:50;;;;;;;;;;;;;;;24.52;59.15;100013.59;7316233;19;129061;-38
2022/08/31 06:52:16;;;;;;;;;;;;;;;24.50;59.13;100013.75;7315282;19;128906;-38
2022/08/31 06:54:41;;;;;;;;;;;;;;;24.51;58.50;100014.59;7315870;19;130195;-37
2022/08/31 06:57:06;;;;;;;;;;;;;;;24.49;59.15;100010.28;7314618;19;131260;-38
2022/08/31 06:59:32;;;;;;;;;;;;;;;24.49;58.61;100020.78;7315243;19;128993;-38
2022/08/31 07:02:00;;;;;;;;;;;;;;;24.50;59.01;100019.00;7313651;19;129203;-38
2022/08/31 07:04:26;;;;;;;;;;;;;;;24.48;58.49;100016.53;7314410;19;130236;-37
2022/08/31 07:06:51;;;;;;;;;;;;;;;24.48;59.14;100017.50;7314501;19;130860;-38
2022/08/31 07:09:17;;;;;;;;;;;;;;;24.48;58.69;100017.50;7315749;19;128908;-38
2022/08/31 07:11:52;;;;;;;;;;;;;;;24.48;59.03;100022.78;7316960;19;129447;-37
2022/08/31 07:14:20;;;;;;;;;;;;;;;24.48;58.54;100027.03;7312329;19;129256;-38
2022/08/31 07:16:46;;;;;;;;;;;;;;;24.40;58.71;100016.44;7310182;19;129589;-38
2022/08/31 07:19:12;;;;;;;;;;;;;;;24.48;59.22;100029.66;7315318;19;129446;-36
2022/08/31 07:21:42;;;;;;;;;;;;;;;24.45;59.03;100024.72;7314857;19;129038;-38
2022/08/31 07:24:09;;;;;;;;;;;;;;;24.47;58.59;100021.94;7313193;19;129688;-37
2022/08/31 07:26:39;;;;;;;;;;;;;;;24.46;59.07;100020.28;7314250;19;130184;-38
2022/08/31 07:29:05;;;;;;;;;;;;;;;24.45;59.19;100019.47;7315497;19;129199;-38
2022/08/31 07:31:42;;;;;;;;;;;;;;;24.45;59.16;100021.25;7316527;19;129305;-38
2022/08/31 07:34:09;;;;;;;;;;;;;;;24.41;58.59;100012.03;7316423;19;130136;-38
2022/08/31 07:42:07;;;;;;;;;;;;;;;24.48;58.95;100021.78;7311517;19;130320;-38
2022/08/31 07:42:08;;;;;;;;;;;;;;;24.45;58.65;100027.34;7314991;19;128929;-37
2022/08/31 07:44:34;;;;;;;;;;;;;;;24.48;58.62;100028.84;7315248;19;130156;-37
2022/08/31 07:46:59;;;;;;;;;;;;;;;24.37;58.56;100016.75;7312630;19;129725;-38
2022/08/31 07:49:25;;;;;;;;;;;;;;;24.44;58.90;100038.00;7315017;19;128852;-38
2022/08/31 07:51:50;;;;;;;;;;;;;;;24.42;58.65;100030.28;7314126;19;129135;-37
2022/08/31 07:54:19;;;;;;;;;;;;;;;24.45;58.70;100035.22;7313994;19;129726;-37
2022/08/31 07:56:45;;;;;;;;;;;;;;;24.45;59.13;100034.38;7313283;19;129354;-38
2022/08/31 07:59:13;;;;;;;;;;;;;;;24.43;58.69;100037.16;7315267;19;129190;-37
2022/08/31 08:01:40;;;;;;;;;;;;;;;24.43;58.75;100031.91;7313436;19;128881;-38
2022/08/31 08:04:06;;;;;;;;;;;;;;;24.43;58.50;100038.97;7313835;19;129985;-39
2022/08/31 08:06:32;;;;;;;;;;;;;;;24.42;58.78;100029.44;7312825;19;130338;-38
2022/08/31 08:09:04;;;;;;;;;;;;;;;24.41;58.70;100033.84;7314227;19;128810;-37
2022/08/31 08:11:31;;;;;;;;;;;;;;;24.43;58.64;100037.16;7314668;19;129011;-38
2022/08/31 08:13:56;;;;;;;;;;;;;;;24.44;59.09;100033.56;7315185;19;130950;-38
2022/08/31 08:16:22;;;;;;;;;;;;;;;24.43;59.28;100036.34;7312109;19;131122;-38
2022/08/31 08:18:47;;;;;;;;;;;;;;;24.42;58.52;100029.44;7312947;19;130428;-37
2022/08/31 08:21:12;;;;;;;;;;;;;;;24.42;58.47;100040.78;7314666;19;129123;-38
2022/08/31 08:23:37;;;;;;;;;;;;;;;24.42;59.41;100040.78;7313853;19;130943;-38
2022/08/31 08:26:07;;;;;;;;;;;;;;;24.42;58.61;100035.53;7314145;19;129572;-37
2022/08/31 08:28:32;;;;;;;;;;;;;;;24.43;58.86;100044.22;7314480;19;128975;-38
2022/08/31 08:31:00;;;;;;;;;;;;;;;24.40;58.52;100037.47;7312706;19;129009;-39
2022/08/31 08:33:28;;;;;;;;;;;;;;;24.36;58.93;100036.09;7311758;19;129410;-38
2022/08/31 08:35:58;;;;;;;;;;;;;;;24.39;58.90;100038.44;7310785;19;130268;-37
2022/08/31 08:38:23;;;;;;;;;;;;;;;24.42;58.69;100043.41;7313674;19;128856;-38
2022/08/31 08:40:50;;;;;;;;;;;;;;;24.42;59.05;100042.56;7313423;19;128825;-35
2022/08/31 08:43:18;;;;;;;;;;;;;;;24.42;59.40;100047.84;7313318;19;129636;-38
2022/08/31 08:45:44;;;;;;;;;;;;;;;24.41;59.05;100041.75;7312144;19;129268;-38
2022/08/31 08:48:12;;;;;;;;;;;;;;;24.40;58.54;100045.34;7319711;19;129245;-36
2022/08/31 08:50:38;;;;;;;;;;;;;;;24.40;59.52;100042.72;7320098;19;129619;-37
2022/08/31 08:53:05;;;;;;;;;;;;;;;24.40;59.35;100053.25;7319986;19;129320;-36
2022/08/31 08:55:35;;;;;;;;;;;;;;;24.40;59.31;100057.66;7319146;19;129586;-38
2022/08/31 08:58:04;;;;;;;;;;;;;;;24.41;59.11;100054.06;7320531;19;129574;-37
2022/08/31 09:00:32;;;;;;;;;;;;;;;24.39;58.93;100050.75;7319917;19;129044;-38
2022/08/31 09:03:03;;;;;;;;;;;;;;;24.40;59.37;100047.16;7319281;19;129660;-38
2022/08/31 09:05:37;;;;;;;;;;;;;;;24.30;58.54;100031.44;7320274;19;130506;-37
2022/08/31 09:08:15;;;;;;;;;;;;;;;24.38;59.40;100044.66;7319754;19;129519;-37
2022/08/31 09:10:44;;;;;;;;;;;;;;;24.38;58.91;100056.97;7319616;19;129002;-38
2022/08/31 09:13:29;;;;;;;;;;;;;;;24.28;59.13;100033.38;7318943;19;129174;-38
2022/08/31 09:15:54;;;;;;;;;;;;;;;24.37;59.02;100045.66;7318241;19;131161;-38
2022/08/31 09:18:25;;;;;;;;;;;;;;;24.36;58.73;100049.25;7319839;19;128847;-38
2022/08/31 09:21:24;;;;;;;;;;;;;;;24.38;58.91;100052.56;7318936;19;131172;-38
2022/08/31 09:24:12;;;;;;;;;;;;;;;24.39;59.53;100048.13;7317461;19;129864;-38
2022/08/31 09:26:53;;;;;;;;;;;;;;;24.37;58.97;100047.44;7317017;19;130413;-38
2022/08/31 09:29:23;;;;;;;;;;;;;;;24.38;58.84;100051.72;7319701;19;129438;-38
2022/08/31 09:31:57;;;;;;;;;;;;;;;24.40;59.35;100045.34;7318801;19;129292;-36
2022/08/31 09:34:28;;;;;;;;;;;;;;;24.38;59.63;100055.19;7319504;19;129552;-38
2022/08/31 09:37:10;;;;;;;;;;;;;;;24.38;58.82;100044.66;7317286;19;129298;-37
2022/08/31 09:39:36;;;;;;;;;;;;;;;24.39;59.53;100046.31;7320461;19;129132;-38
2022/08/31 09:42:11;;;;;;;;;;;;;;;24.37;59.31;100045.66;7319089;19;128738;-38
2022/08/31 09:44:40;;;;;;;;;;;;;;;24.29;59.27;100034.22;7319028;19;130104;-38
2022/08/31 09:47:13;;;;;;;;;;;;;;;24.40;59.13;100047.16;7316787;19;130304;-38
2022/08/31 09:49:39;;;;;;;;;;;;;;;24.33;59.26;100035.56;7318013;19;130551;-38
2022/08/31 09:55:12;;;;;;;;;;;;;;;24.39;59.62;100043.69;7319196;19;130220;-36
2022/08/31 09:55:13;;;;;;;;;;;;;;;24.39;59.28;100046.31;7318557;19;130674;-37
2022/08/31 09:57:43;;;;;;;;;;;;;;;24.37;59.21;100037.75;7317568;19;129393;-36
2022/08/31 10:00:13;;;;;;;;;;;;;;;24.39;59.70;100042.88;7316313;19;129276;-39
2022/08/31 10:02:39;;;;;;;;;;;;;;;24.39;59.36;100046.31;7316705;19;129489;-38
2022/08/31 10:05:06;;;;;;;;;;;;;;;24.39;59.67;100040.25;7317581;19;129127;-38
2022/08/31 10:07:31;;;;;;;;;;;;;;;24.39;59.22;100035.00;7316065;19;129276;-38
2022/08/31 10:09:56;;;;;;;;;;;;;;;24.39;59.35;100035.78;7318431;19;129326;-38
2022/08/31 10:12:25;;;;;;;;;;;;;;;24.39;59.80;100042.88;7317830;19;129120;-37
2022/08/31 10:15:03;;;;;;;;;;;;;;;24.39;59.49;100041.06;7318623;19;129761;-38
2022/08/31 10:17:30;;;;;;;;;;;;;;;24.38;59.26;100039.41;7315286;19;131522;-38
2022/08/31 10:20:05;;;;;;;;;;;;;;;24.39;58.90;100040.25;7317887;19;128839;-37
2022/08/31 10:22:40;;;;;;;;;;;;;;;24.30;59.72;100018.28;7315928;19;129050;-38
2022/08/31 10:25:19;;;;;;;;;;;;;;;24.40;59.73;100032.22;7317864;19;131436;-37
2022/08/31 10:27:59;;;;;;;;;;;;;;;24.38;59.22;100023.63;7316764;19;129768;-38
2022/08/31 10:30:41;;;;;;;;;;;;;;;24.39;58.92;100029.72;7318171;19;128922;-38
2022/08/31 10:33:16;;;;;;;;;;;;;;;24.41;59.59;100046.19;7317608;19;129443;-38
2022/08/31 10:35:43;;;;;;;;;;;;;;;24.40;59.04;100032.22;7316040;19;130188;-38
2022/08/31 10:38:22;;;;;;;;;;;;;;;24.39;59.67;100022.66;7316657;19;130274;-38
2022/08/31 10:41:06;;;;;;;;;;;;;;;24.28;59.29;100009.72;7317295;19;130167;-38
2022/08/31 10:43:43;;;;;;;;;;;;;;;24.37;59.11;100029.88;7315955;19;128927;-38
2022/08/31 10:46:08;;;;;;;;;;;;;;;24.33;59.40;100025.88;7316883;19;130149;-37
2022/08/31 10:48:36;;;;;;;;;;;;;;;24.38;59.47;100026.28;7317128;19;129588;-37
2022/08/31 10:51:18;;;;;;;;;;;;;;;24.41;59.49;100028.59;7317102;19;129477;-38
2022/08/31 10:53:49;;;;;;;;;;;;;;;24.32;59.65;100015.53;7317416;19;128807;-37
2022/08/31 10:56:36;;;;;;;;;;;;;;;24.39;58.90;100030.53;7314867;19;129228;-38
2022/08/31 10:59:01;;;;;;;;;;;;;;;24.40;59.22;100032.22;7317145;19;131302;-38
2022/08/31 11:01:45;;;;;;;;;;;;;;;24.40;59.68;100020.88;7316414;19;129072;-36
2022/08/31 11:04:28;;;;;;;;;;;;;;;24.38;59.46;100025.44;7317500;19;129055;-38
2022/08/31 11:07:10;;;;;;;;;;;;;;;24.37;59.62;100031.69;7315386;19;130269;-37
2022/08/31 11:09:36;;;;;;;;;;;;;;;24.37;59.26;100029.88;7316326;19;131559;-38
2022/08/31 11:12:06;;;;;;;;;;;;;;;24.38;59.51;100036.78;7315375;19;129105;-38
2022/08/31 11:15:02;;;;;;;;;;;;;;;24.37;59.27;100021.16;7316874;19;128753;-38
2022/08/31 11:17:39;;;;;;;;;;;;;;;24.38;59.38;100022.81;7313550;19;131143;-38
2022/08/31 11:20:16;;;;;;;;;;;;;;;24.38;59.52;100018.38;7316388;19;130398;-38
2022/08/31 11:22:42;;;;;;;;;;;;;;;24.38;59.47;100026.28;7314516;19;129063;-38
2022/08/31 11:25:16;;;;;;;;;;;;;;;24.40;59.51;100026.94;7316357;19;128966;-38
2022/08/31 11:28:04;;;;;;;;;;;;;;;24.36;58.90;100017.69;7317171;19;131183;-38
2022/08/31 11:30:31;;;;;;;;;;;;;;;24.28;59.16;100001.84;7315614;19;131266;-38
2022/08/31 11:33:06;;;;;;;;;;;;;;;24.40;59.52;100018.22;7315963;19;129535;-35
2022/08/31 11:36:07;;;;;;;;;;;;;;;24.40;59.87;100019.06;7315251;19;129040;-37
2022/08/31 11:38:53;;;;;;;;;;;;;;;24.40;59.74;100016.44;7315760;19;131021;-36
2022/08/31 11:41:45;;;;;;;;;;;;;;;24.40;59.88;100016.44;7315146;19;129145;-38
2022/08/31 11:44:35;;;;;;;;;;;;;;;24.40;59.52;100019.06;7315531;19;128945;-38
2022/08/31 11:47:19;;;;;;;;;;;;;;;24.41;59.57;100015.47;7312966;19;128807;-38
2022/08/31 11:49:46;;;;;;;;;;;;;;;24.40;59.49;100012.97;7315633;19;129480;-36
2022/08/31 11:52:24;;;;;;;;;;;;;;;24.41;59.64;100012.81;7314287;19;130304;-38
2022/08/31 11:54:49;;;;;;;;;;;;;;;24.42;59.95;100017.13;7315781;19;128964;-38
2022/08/31 11:57:20;;;;;;;;;;;;;;;24.40;59.93;100005.94;7312512;19;128847;-36
2022/08/31 11:59:46;;;;;;;;;;;;;;;24.40;59.02;100013.81;7316232;19;129650;-35
2022/08/31 12:02:24;;;;;;;;;;;;;;;24.42;59.29;100008.41;7313820;19;130879;-38
2022/08/31 12:04:51;;;;;;;;;;;;;;;24.42;59.34;100011.88;7315540;19;129195;-37
2022/08/31 12:07:25;;;;;;;;;;;;;;;24.40;59.60;100010.34;7312585;19;128977;-37
2022/08/31 12:09:53;;;;;;;;;;;;;;;24.41;59.52;100012.03;7314660;19;130273;-39
2022/08/31 12:12:31;;;;;;;;;;;;;;;24.42;59.60;100009.25;7313331;19;130391;-39
2022/08/31 12:15:15;;;;;;;;;;;;;;;24.41;59.32;100002.31;7315008;19;129385;-38
2022/08/31 12:17:45;;;;;;;;;;;;;;;24.41;58.93;100004.94;7313618;19;129307;-38
2022/08/31 12:20:11;;;;;;;;;;;;;;;24.42;59.73;99996.09;7314969;19;131384;-38
2022/08/31 12:25:40;;;;;;;;;;;;;;;24.32;59.82;99981.34;7315642;19;129045;-38
2022/08/31 12:28:08;;;;;;;;;;;;;;;24.42;59.36;100004.00;7314852;19;129521;-38
2022/08/31 12:30:33;;;;;;;;;;;;;;;24.43;60.01;99992.50;7314371;19;131272;-35
2022/08/31 12:33:14;;;;;;;;;;;;;;;24.42;59.55;99993.47;7313105;19;130334;-36
2022/08/31 12:35:39;;;;;;;;;;;;;;;24.43;59.32;99995.13;7314136;19;129136;-38
2022/08/31 12:38:06;;;;;;;;;;;;;;;24.33;59.40;99975.94;7314523;19;128919;-37
2022/08/31 12:40:33;;;;;;;;;;;;;;;24.43;59.23;99992.50;7314466;19;130081;-38
2022/08/31 12:43:18;;;;;;;;;;;;;;;24.42;60.04;99995.25;7313101;19;130308;-37
2022/08/31 12:45:43;;;;;;;;;;;;;;;24.41;59.86;100002.31;7312435;19;129438;-38
2022/08/31 12:48:27;;;;;;;;;;;;;;;24.43;59.89;99995.13;7312766;19;128962;-37
2022/08/31 12:51:06;;;;;;;;;;;;;;;24.41;59.90;99991.81;7311107;19;130813;-37